Time;durP1;ratioP1;P1;durP2;ratioP2;P2;SDS_P1;SDS_P2;PMS_P1;PMS_P2;Temp;Humidity;BMP_temperature;BMP_pressure;BME280_temperature;BME280_humidity;BME280_pressure;Samples;Min_cycle;Max_cycle;Signal;HPM_P1;HPM_P2
2022/08/24 00:00:29;;;;;;;4.80;3.08;;;;;;;-145.69;100.00;71310.84;5079153;28;20199;-76
2022/08/24 00:02:56;;;;;;;8.57;3.13;;;;;;;-145.69;100.00;71304.91;5079344;28;20230;-76
2022/08/24 00:05:22;;;;;;;4.20;2.83;;;;;;;-145.69;100.00;71314.84;5079512;28;20237;-76
2022/08/24 00:07:49;;;;;;;4.50;2.75;;;;;;;-145.69;100.00;71308.88;5079418;28;20202;-77
2022/08/24 00:10:16;;;;;;;4.30;3.03;;;;;;;-145.69;100.00;71308.88;5079413;28;20206;-77
2022/08/24 00:12:43;;;;;;;5.43;3.05;;;;;;;-145.69;100.00;71312.84;5078153;28;20795;-76
2022/08/24 00:15:13;;;;;;;8.40;3.20;;;;;;;-145.69;100.00;71306.88;5078911;28;20221;-77
2022/08/24 00:17:39;;;;;;;5.30;3.05;;;;;;;-145.69;100.00;71314.84;5079094;28;20199;-77
2022/08/24 00:20:08;;;;;;;4.88;2.90;;;;;;;-145.69;100.00;71312.84;5079004;28;20202;-77
2022/08/24 00:22:35;;;;;;;9.73;3.00;;;;;;;-145.69;100.00;71318.81;5079371;28;20198;-76
2022/08/24 00:25:02;;;;;;;4.68;2.83;;;;;;;-145.69;100.00;71326.78;5079117;28;20205;-77
2022/08/24 00:27:28;;;;;;;10.75;2.90;;;;;;;-145.69;100.00;71332.75;5079199;28;20561;-76
2022/08/24 00:29:55;;;;;;;9.48;2.83;;;;;;;-145.69;100.00;71328.78;5078864;28;20565;-76
2022/08/24 00:32:23;;;;;;;7.32;3.85;;;;;;;-145.69;100.00;71328.78;5079066;28;20199;-76
2022/08/24 00:34:50;;;;;;;9.77;2.90;;;;;;;-145.69;100.00;71336.72;5079163;28;20241;-76
2022/08/24 00:37:17;;;;;;;8.30;3.10;;;;;;;-145.69;100.00;71344.69;5079032;28;20199;-76
2022/08/24 00:39:43;;;;;;;5.97;3.65;;;;;;;-145.69;100.00;71352.66;5078989;28;20198;-76
2022/08/24 00:42:11;;;;;;;5.30;2.72;;;;;;;-145.69;100.00;71354.63;5079164;28;20207;-76
2022/08/24 00:44:37;;;;;;;4.22;3.38;;;;;;;-145.69;100.00;71374.53;5078916;28;20203;-76
2022/08/24 00:47:11;;;;;;;4.47;2.90;;;;;;;-145.69;100.00;71392.44;5078830;28;20205;-77
2022/08/24 00:49:43;;;;;;;6.25;2.92;;;;;;;-145.69;100.00;71378.50;5078933;28;20725;-76
2022/08/24 00:52:15;;;;;;;4.45;2.90;;;;;;;-145.69;100.00;71378.50;5071920;28;20195;-76
2022/08/24 00:54:45;;;;;;;5.13;3.10;;;;;;;-145.69;100.00;71390.47;5058942;28;20233;-77
2022/08/24 00:57:14;;;;;;;11.73;3.38;;;;;;;-145.69;100.00;71398.41;5076269;28;20627;-76
2022/08/24 00:59:44;;;;;;;5.28;3.10;;;;;;;-145.69;100.00;71408.38;5079138;28;20260;-76
2022/08/24 01:02:15;;;;;;;5.78;3.22;;;;;;;-145.69;100.00;71398.41;5071322;28;20198;-76
2022/08/24 01:04:48;;;;;;;4.97;3.40;;;;;;;-145.69;100.00;71398.41;5078584;28;20194;-75
2022/08/24 01:07:15;;;;;;;6.13;3.08;;;;;;;-145.69;100.00;71394.44;5076128;28;20242;-76
2022/08/24 01:09:45;;;;;;;6.28;3.63;;;;;;;-145.69;100.00;71406.38;5075411;28;20557;-76
2022/08/24 01:12:11;;;;;;;4.35;3.28;;;;;;;-145.69;100.00;71418.31;5074670;28;20554;-75
2022/08/24 01:14:38;;;;;;;5.68;3.30;;;;;;;-145.69;100.00;71414.34;5075308;28;20222;-76
2022/08/24 01:19:55;;;;;;;6.27;3.33;;;;;;;-145.69;100.00;71422.28;5075569;28;20206;-76
2022/08/24 01:22:53;;;;;;;6.67;3.37;;;;;;;-145.69;100.00;71434.22;5075081;28;20199;-75
2022/08/24 01:25:23;;;;;;;5.22;3.25;;;;;;;-145.69;100.00;71456.13;5075409;28;20202;-76
2022/08/24 01:27:51;;;;;;;7.00;3.57;;;;;;;-145.69;100.00;71462.09;5075416;28;20202;-77
2022/08/24 01:30:18;;;;;;;6.45;3.63;;;;;;;-145.69;100.00;71482.00;5075182;28;20199;-76
2022/08/24 01:32:53;;;;;;;7.60;3.73;;;;;;;-145.69;100.00;71478.00;5074850;28;20198;-77
2022/08/24 01:35:20;;;;;;;5.72;3.53;;;;;;;-145.69;100.00;71489.94;5075051;28;20641;-76
2022/08/24 01:37:46;;;;;;;9.07;3.73;;;;;;;-145.69;100.00;71501.88;5075181;28;20202;-76
2022/08/24 01:40:13;;;;;;;7.87;3.80;;;;;;;-145.69;100.00;71491.94;5075107;28;20250;-76
2022/08/24 01:42:47;;;;;;;9.07;3.20;;;;;;;-145.69;100.00;71483.97;5074918;28;20199;-79
2022/08/24 01:45:14;;;;;;;9.52;3.42;;;;;;;-145.69;100.00;71485.97;5074660;28;20198;-76
2022/08/24 01:47:41;;;;;;;5.38;3.53;;;;;;;-145.69;100.00;71482.00;5074820;28;20292;-77
2022/08/24 01:50:08;;;;;;;7.22;3.60;;;;;;;-145.69;100.00;71482.00;5074967;28;20281;-75
2022/08/24 01:52:35;;;;;;;6.00;3.57;;;;;;;-145.69;100.00;71472.03;5074288;28;20209;-76
2022/08/24 01:55:01;;;;;;;4.23;3.30;;;;;;;-145.69;100.00;71483.97;5074836;28;20249;-77
2022/08/24 01:57:28;;;;;;;4.17;3.50;;;;;;;-145.69;100.00;71493.94;5074642;28;20198;-77
2022/08/24 01:59:56;;;;;;;4.50;3.22;;;;;;;-145.69;100.00;71509.84;5074606;28;20218;-76
2022/08/24 02:02:27;;;;;;;11.13;3.53;;;;;;;-145.69;100.00;71513.81;5074094;28;20749;-76
2022/08/24 02:04:54;;;;;;;5.33;3.27;;;;;;;-145.69;100.00;71517.81;5074747;28;20252;-76
2022/08/24 02:07:23;;;;;;;12.13;3.63;;;;;;;-145.69;100.00;71527.75;5074443;28;20667;-77
2022/08/24 02:09:50;;;;;;;5.40;3.70;;;;;;;-145.69;100.00;71525.78;5074497;28;20642;-77
2022/08/24 02:12:17;;;;;;;4.10;3.37;;;;;;;-145.69;100.00;71509.84;5074298;28;20206;-76
2022/08/24 02:14:44;;;;;;;9.83;3.63;;;;;;;-145.69;100.00;71497.91;5074072;28;20222;-76
2022/08/24 02:17:12;;;;;;;9.50;3.20;;;;;;;-145.69;100.00;71487.97;5074248;28;20248;-76
2022/08/24 02:19:39;;;;;;;7.53;3.40;;;;;;;-145.69;100.00;71499.91;5073025;28;20604;-77
2022/08/24 02:22:06;;;;;;;4.78;3.05;;;;;;;-145.69;100.00;71495.91;5074150;28;20646;-76
2022/08/24 02:24:33;;;;;;;5.13;3.57;;;;;;;-145.69;100.00;71485.97;5074014;28;20198;-77
2022/08/24 02:26:59;;;;;;;4.73;3.60;;;;;;;-145.69;100.00;71476.03;5074105;28;20217;-75
2022/08/24 02:29:26;;;;;;;6.80;3.58;;;;;;;-145.69;100.00;71480.00;5074299;28;20202;-76
2022/08/24 02:31:52;;;;;;;4.97;3.37;;;;;;;-145.69;100.00;71487.97;5074210;28;20194;-75
2022/08/24 02:34:20;;;;;;;5.67;3.63;;;;;;;-145.69;100.00;71517.81;5073334;28;20688;-76
2022/08/24 02:36:47;;;;;;;6.27;3.27;;;;;;;-145.69;100.00;71539.69;5074049;28;20230;-76
2022/08/24 02:39:13;;;;;;;8.02;4.07;;;;;;;-145.69;100.00;71567.56;5072607;28;20441;-75
2022/08/24 02:41:40;;;;;;;7.18;3.60;;;;;;;-145.69;100.00;71569.53;5073831;28;20203;-76
2022/08/24 02:44:07;;;;;;;5.30;3.73;;;;;;;-145.69;100.00;71565.56;5073599;28;20207;-75
2022/08/24 02:46:34;;;;;;;10.30;4.03;;;;;;;-145.69;100.00;71561.59;5073808;28;20732;-76
2022/08/24 02:49:00;;;;;;;6.63;3.90;;;;;;;-145.69;100.00;71585.47;5073564;28;20246;-76
2022/08/24 02:51:33;;;;;;;10.05;3.70;;;;;;;-145.69;100.00;71601.38;5063398;28;20204;-76
2022/08/24 02:54:02;;;;;;;7.47;3.87;;;;;;;-145.69;100.00;71611.34;5065560;28;20268;-76
2022/08/24 02:56:29;;;;;;;9.37;4.07;;;;;;;-145.69;100.00;71609.34;5073744;28;20195;-76
2022/08/24 02:58:56;;;;;;;7.33;4.07;;;;;;;-145.69;100.00;71573.53;5073633;28;20198;-77
2022/08/24 03:01:23;;;;;;;7.60;3.77;;;;;;;-145.69;100.00;71569.53;5073465;28;20657;-77
2022/08/24 03:03:50;;;;;;;16.57;4.13;;;;;;;-145.69;100.00;71583.47;5073264;28;20198;-77
2022/08/24 03:06:17;;;;;;;8.20;3.87;;;;;;;-145.69;100.00;71585.47;5073366;28;20202;-76
2022/08/24 03:08:46;;;;;;;7.00;4.23;;;;;;;-145.69;100.00;71587.47;5073254;28;20211;-76
2022/08/24 03:11:13;;;;;;;5.70;4.00;;;;;;;-145.69;100.00;71595.41;5073476;28;20209;-75
2022/08/24 03:13:39;;;;;;;5.73;4.30;;;;;;;-145.69;100.00;71603.38;5073106;28;20210;-76
2022/08/24 03:16:07;;;;;;;9.03;4.47;;;;;;;-145.69;100.00;71617.31;5073259;28;20248;-76
2022/08/24 03:18:33;;;;;;;8.33;4.03;;;;;;;-145.69;100.00;71613.31;5073159;28;20202;-77
2022/08/24 03:21:02;;;;;;;5.20;3.57;;;;;;;-145.69;100.00;71629.25;5073056;28;20198;-76
2022/08/24 03:23:28;;;;;;;5.30;4.07;;;;;;;-145.69;100.00;71649.16;5072971;28;20191;-76
2022/08/24 03:25:57;;;;;;;9.17;4.63;;;;;;;-145.69;100.00;71665.06;5073045;28;20222;-76
2022/08/24 03:28:25;;;;;;;7.60;4.37;;;;;;;-145.69;100.00;71673.03;5073081;28;20661;-76
2022/08/24 03:30:51;;;;;;;6.93;4.40;;;;;;;-145.69;100.00;71675.00;5072796;28;20210;-76
2022/08/24 03:33:20;;;;;;;5.87;4.20;;;;;;;-145.69;100.00;71679.00;5072611;28;20677;-76
2022/08/24 03:35:47;;;;;;;9.00;4.97;;;;;;;-145.69;100.00;71684.97;5072851;28;20222;-76
2022/08/24 03:38:13;;;;;;;11.57;5.20;;;;;;;-145.69;100.00;71673.03;5073140;28;20207;-76
2022/08/24 03:40:40;;;;;;;10.20;4.53;;;;;;;-145.69;100.00;71661.09;5073063;28;20202;-76
2022/08/24 03:43:44;;;;;;;7.13;4.80;;;;;;;-145.69;100.00;71643.19;5072717;28;20658;-76
2022/08/24 03:45:55;;;;;;;7.73;4.57;;;;;;;-145.69;100.00;71645.16;5072563;28;20202;-75
2022/08/24 03:48:23;;;;;;;8.80;4.80;;;;;;;-145.69;100.00;71657.09;5072638;28;20235;-76
2022/08/24 03:50:50;;;;;;;6.00;4.70;;;;;;;-145.69;100.00;71667.06;5072556;28;20199;-76
2022/08/24 03:53:16;;;;;;;7.43;5.03;;;;;;;-145.69;100.00;71673.03;5072952;28;20601;-76
2022/08/24 03:55:43;;;;;;;8.60;4.90;;;;;;;-145.69;100.00;71688.94;5072723;28;20716;-76
2022/08/24 03:58:11;;;;;;;9.27;4.83;;;;;;;-145.69;100.00;71706.84;5072685;28;20199;-77
2022/08/24 04:00:41;;;;;;;8.00;5.72;;;;;;;-145.69;100.00;71696.91;5071606;28;20514;-76
2022/08/24 04:03:07;;;;;;;12.40;6.23;;;;;;;-145.69;100.00;71694.91;5072665;28;20687;-76
2022/08/24 04:05:34;;;;;;;6.57;4.67;;;;;;;-145.69;100.00;71704.88;5072806;28;20206;-77
2022/08/24 04:08:00;;;;;;;8.87;4.90;;;;;;;-145.69;100.00;71706.84;5072798;28;20202;-76
2022/08/24 04:10:27;;;;;;;11.97;4.73;;;;;;;-145.69;100.00;71696.91;5072542;28;20205;-76
2022/08/24 04:12:54;;;;;;;11.60;5.30;;;;;;;-145.69;100.00;71686.97;5072721;28;20199;-76
2022/08/24 04:15:23;;;;;;;10.20;5.43;;;;;;;-145.69;100.00;71661.09;5072511;28;20570;-76
2022/08/24 04:17:49;;;;;;;7.60;4.60;;;;;;;-145.69;100.00;71657.09;5072420;28;20664;-75
2022/08/24 04:20:16;;;;;;;8.13;4.30;;;;;;;-145.69;100.00;71673.03;5072805;28;20202;-76
2022/08/24 04:22:43;;;;;;;7.93;5.13;;;;;;;-145.69;100.00;71639.19;5072396;28;20288;-76
2022/08/24 04:25:11;;;;;;;7.67;4.73;;;;;;;-145.69;100.00;71631.25;5072545;28;20722;-76
2022/08/24 04:27:37;;;;;;;12.00;4.23;;;;;;;-145.69;100.00;71625.25;5072325;28;20199;-76
2022/08/24 04:30:07;;;;;;;7.63;5.23;;;;;;;-145.69;100.00;71631.25;5072408;28;20210;-76
2022/08/24 04:32:35;;;;;;;5.00;4.10;;;;;;;-145.69;100.00;71645.16;5072063;28;20206;-76
2022/08/24 04:35:02;;;;;;;7.10;3.70;;;;;;;-145.69;100.00;71677.00;5072335;28;20308;-76
2022/08/24 04:37:28;;;;;;;5.33;3.60;;;;;;;-145.69;100.00;71692.94;5072386;28;20230;-76
2022/08/24 04:39:55;;;;;;;8.70;5.07;;;;;;;-145.69;100.00;71688.94;5072417;28;20202;-76
2022/08/24 04:42:22;;;;;;;9.13;5.17;;;;;;;-145.69;100.00;71675.00;5073428;28;20578;-76
2022/08/24 04:44:49;;;;;;;8.63;5.10;;;;;;;-145.69;100.00;71649.16;5076278;28;20545;-76
2022/08/24 04:47:15;;;;;;;5.97;4.37;;;;;;;-145.69;100.00;71680.97;5075665;28;20207;-77
2022/08/24 04:49:43;;;;;;;7.67;4.33;;;;;;;-145.69;100.00;71686.97;5076203;28;20194;-75
2022/08/24 04:52:10;;;;;;;6.43;4.33;;;;;;;-145.69;100.00;71692.94;5073318;28;20203;-76
2022/08/24 04:54:36;;;;;;;6.60;4.63;;;;;;;-145.69;100.00;71694.91;5075874;28;20281;-76
2022/08/24 04:57:03;;;;;;;10.60;4.73;;;;;;;-145.69;100.00;71702.88;5075834;28;20221;-76
2022/08/24 04:59:29;;;;;;;6.83;4.40;;;;;;;-145.69;100.00;71704.88;5075767;28;20293;-77
2022/08/24 05:01:56;;;;;;;7.17;5.03;;;;;;;-145.69;100.00;71694.91;5075557;28;20194;-77
2022/08/24 05:04:23;;;;;;;10.13;4.90;;;;;;;-145.69;100.00;71692.94;5075470;28;20553;-76
2022/08/24 05:06:50;;;;;;;9.63;5.43;;;;;;;-145.69;100.00;71677.00;5075556;28;20203;-77
2022/08/24 05:09:19;;;;;;;10.03;5.30;;;;;;;-145.69;100.00;71651.13;5075603;28;20199;-76
2022/08/24 05:11:46;;;;;;;7.30;4.30;;;;;;;-145.69;100.00;71637.19;5075548;28;20202;-77
2022/08/24 05:14:13;;;;;;;6.20;4.40;;;;;;;-145.69;100.00;71653.13;5075728;28;20202;-76
2022/08/24 05:16:39;;;;;;;7.97;4.60;;;;;;;-145.69;100.00;71673.03;5075520;28;20230;-77
2022/08/24 05:19:06;;;;;;;8.03;5.03;;;;;;;-145.69;100.00;71673.03;5075996;28;20210;-77
2022/08/24 05:21:33;;;;;;;10.53;5.03;;;;;;;-145.69;100.00;71677.00;5075482;28;20191;-76
2022/08/24 05:24:01;;;;;;;6.27;4.83;;;;;;;-145.69;100.00;71657.09;5075292;28;20206;-77
2022/08/24 05:26:29;;;;;;;6.73;5.00;;;;;;;-145.69;100.00;71641.19;5075364;28;20202;-76
2022/08/24 05:28:57;;;;;;;10.30;5.40;;;;;;;-145.69;100.00;71635.22;5075437;28;20203;-76
2022/08/24 05:31:27;;;;;;;8.73;4.67;;;;;;;-145.69;100.00;71609.34;5075101;28;20194;-76
2022/08/24 05:33:54;;;;;;;6.50;4.33;;;;;;;-145.69;100.00;71609.34;5074867;28;20210;-76
2022/08/24 05:36:23;;;;;;;6.60;4.33;;;;;;;-145.69;100.00;71601.38;5074980;28;20704;-76
2022/08/24 05:38:51;;;;;;;6.97;4.30;;;;;;;-145.69;100.00;71611.34;5075295;28;20206;-76
2022/08/24 05:41:20;;;;;;;6.80;3.97;;;;;;;-145.69;100.00;71601.38;5074979;28;20328;-77
2022/08/24 05:43:47;;;;;;;4.73;3.90;;;;;;;-145.69;100.00;71597.41;5075155;28;20206;-78
2022/08/24 05:46:14;;;;;;;6.87;4.23;;;;;;;-145.69;100.00;71587.47;5074945;28;20199;-77
2022/08/24 05:48:42;;;;;;;9.13;5.20;;;;;;;-145.69;100.00;71577.50;5074823;28;20199;-78
2022/08/24 05:51:10;;;;;;;8.27;4.63;;;;;;;-145.69;100.00;71569.53;5074569;28;20203;-76
2022/08/24 05:53:37;;;;;;;10.00;4.68;;;;;;;-145.69;100.00;71557.59;5074717;28;20203;-76
2022/08/24 05:56:04;;;;;;;8.00;4.20;;;;;;;-145.69;100.00;71545.66;5074697;28;20700;-77
2022/08/24 05:58:32;;;;;;;7.23;4.03;;;;;;;-145.69;100.00;71531.75;5074787;28;20209;-77
2022/08/24 06:00:59;;;;;;;5.43;3.97;;;;;;;-145.69;100.00;71507.84;5074809;28;20241;-77
2022/08/24 06:03:26;;;;;;;9.67;4.40;;;;;;;-145.69;100.00;71487.97;5074383;28;20648;-77
2022/08/24 06:05:53;;;;;;;8.00;4.18;;;;;;;-145.69;100.00;71464.09;5074830;28;20554;-77
2022/08/24 06:08:20;;;;;;;6.73;4.00;;;;;;;-145.69;100.00;71454.13;5074658;28;20209;-77
2022/08/24 06:10:47;;;;;;;5.13;3.60;;;;;;;-145.69;100.00;71434.22;5074495;28;20202;-77
2022/08/24 06:13:14;;;;;;;6.03;3.72;;;;;;;-145.69;100.00;71426.28;5073999;28;20202;-77
2022/08/24 06:15:43;;;;;;;5.60;3.67;;;;;;;-145.69;100.00;71418.31;5074269;28;20227;-76
2022/08/24 06:18:09;;;;;;;6.40;3.65;;;;;;;-145.69;100.00;71414.34;5074252;28;20209;-77
2022/08/24 06:20:39;;;;;;;7.93;3.97;;;;;;;-145.69;100.00;71398.41;5074555;28;20199;-76
2022/08/24 06:23:06;;;;;;;5.00;3.53;;;;;;;-145.69;100.00;71376.53;5074225;28;20195;-77
2022/08/24 06:28:18;;;;;;;11.02;3.30;;;;;;;-145.69;100.00;71328.78;5074056;28;20321;-76
2022/08/24 06:30:46;;;;;;;8.30;3.50;;;;;;;-145.69;100.00;71314.84;5074244;28;20214;-75
2022/08/24 06:33:13;;;;;;;7.30;3.30;;;;;;;-145.69;100.00;71298.94;5073809;28;20207;-78
2022/08/24 06:35:39;;;;;;;3.20;2.88;;;;;;;-145.69;100.00;71263.09;5074090;28;20226;-76
2022/08/24 06:38:08;;;;;;;3.70;2.72;;;;;;;-145.69;100.00;71237.25;5074040;28;20199;-76
2022/08/24 06:40:41;;;;;;;4.20;2.63;;;;;;;-145.69;100.00;71203.41;5074058;28;20205;-76
2022/08/24 06:43:08;;;;;;;5.50;2.58;;;;;;;-145.69;100.00;71199.44;5073564;28;20201;-76
2022/08/24 06:45:34;;;;;;;3.38;2.65;;;;;;;-145.69;100.00;71185.50;5074016;28;20203;-77
2022/08/24 06:48:02;;;;;;;3.90;2.40;;;;;;;-145.69;100.00;71151.69;5073509;28;20709;-76
2022/08/24 06:50:29;;;;;;;6.35;2.63;;;;;;;-145.69;100.00;71115.88;5073772;28;20209;-76
2022/08/24 06:52:56;;;;;;;8.90;2.55;;;;;;;-145.69;100.00;71088.00;5062477;28;20206;-75
2022/08/24 06:55:22;;;;;;;4.50;2.40;;;;;;;-145.69;99.46;71052.19;5053430;28;20535;-75
2022/08/24 06:57:49;;;;;;;4.72;2.50;;;;;;;-145.69;99.41;71028.31;5054029;28;20204;-75
2022/08/24 07:00:17;;;;;;;4.18;2.47;;;;;;;-145.69;99.57;71012.41;5073603;28;20195;-75
2022/08/24 07:02:43;;;;;;;4.22;2.33;;;;;;;-145.69;96.99;70990.50;5073663;28;20203;-76
2022/08/24 07:05:11;;;;;;;2.50;2.30;;;;;;;-145.69;97.73;70960.66;5072888;28;20364;-76
2022/08/24 07:07:40;;;;;;;4.93;2.15;;;;;;;-145.69;97.20;70934.81;5073088;28;20659;-76
2022/08/24 07:10:08;;;;;;;4.10;2.42;;;;;;;-145.69;96.58;70918.88;5072959;28;20650;-75
2022/08/24 07:12:35;;;;;;;4.43;2.15;;;;;;;-145.69;94.13;70910.94;5073517;28;20211;-76
2022/08/24 07:15:02;;;;;;;7.78;2.58;;;;;;;-145.69;95.85;70897.00;5073372;28;20435;-75
2022/08/24 07:17:29;;;;;;;6.18;2.88;;;;;;;-145.69;91.45;70885.06;5073304;28;20261;-75
2022/08/24 07:19:55;;;;;;;3.15;2.38;;;;;;;-145.69;88.94;70877.09;5072938;28;20202;-76
2022/08/24 07:22:23;;;;;;;4.30;2.60;;;;;;;-145.69;87.62;70857.22;5073041;28;20195;-76
2022/08/24 07:24:50;;;;;;;6.68;2.60;;;;;;;-145.69;91.41;70837.31;5073065;28;20198;-77
2022/08/24 07:27:16;;;;;;;4.68;2.55;;;;;;;-145.69;86.38;70815.44;5073085;28;20206;-76
2022/08/24 07:29:43;;;;;;;4.32;2.22;;;;;;;-145.69;86.48;70809.47;5073016;28;20199;-75
2022/08/24 07:32:10;;;;;;;5.65;2.38;;;;;;;-145.69;86.85;70791.56;5072986;28;20210;-76
2022/08/24 07:34:37;;;;;;;4.55;2.10;;;;;;;-145.69;83.94;70781.59;5073071;28;20234;-76
2022/08/24 07:37:04;;;;;;;2.80;2.10;;;;;;;-145.69;86.90;70757.72;5072512;28;20245;-75
2022/08/24 07:39:32;;;;;;;2.83;2.00;;;;;;;-145.69;83.88;70743.81;5072556;28;20213;-76
2022/08/24 07:41:59;;;;;;;5.85;1.90;;;;;;;-145.69;81.27;70737.84;5073078;28;20249;-76
2022/08/24 07:44:25;;;;;;;7.88;2.15;;;;;;;-145.69;80.11;70725.91;5073095;28;20611;-75
2022/08/24 07:46:52;;;;;;;4.28;2.30;;;;;;;-145.69;82.44;70696.06;5066457;28;20206;-76
2022/08/24 07:49:18;;;;;;;2.13;1.73;;;;;;;-145.69;84.09;70682.13;5067807;28;20231;-75
2022/08/24 07:51:45;;;;;;;3.67;2.08;;;;;;;-145.69;77.94;70662.22;5072576;28;20203;-76
2022/08/24 07:54:12;;;;;;;6.85;2.60;;;;;;;-145.69;77.03;70634.38;5072438;28;20649;-76
2022/08/24 07:56:39;;;;;;;2.85;1.60;;;;;;;-145.69;77.59;70630.41;5072848;28;20233;-76
2022/08/24 07:59:06;;;;;;;9.05;2.40;;;;;;;-145.69;79.66;70620.44;5072248;28;20199;-76
2022/08/24 08:01:33;;;;;;;4.22;2.05;;;;;;;-145.69;83.82;70606.53;5072886;28;20198;-76
2022/08/24 08:03:59;;;;;;;2.45;1.63;;;;;;;-145.69;80.02;70612.50;5072444;28;20219;-76
2022/08/24 08:06:26;;;;;;;4.80;2.20;;;;;;;-145.69;82.42;70590.63;5072093;28;20198;-75
2022/08/24 08:08:52;;;;;;;2.58;1.80;;;;;;;-145.69;77.07;70594.59;5072777;28;20534;-77
2022/08/24 08:11:19;;;;;;;6.88;1.50;;;;;;;-145.69;62.40;70550.81;5072105;28;20676;-75
2022/08/24 08:13:47;;;;;;;3.45;1.13;;;;;;;-145.69;49.62;70530.94;5072390;28;20499;-76
2022/08/24 08:16:14;;;;;;;2.72;1.10;;;;;;;-145.69;48.06;70495.13;5073725;28;20269;-75
2022/08/24 08:18:41;;;;;;;3.22;1.20;;;;;;;-145.69;45.97;70491.13;5076546;28;20230;-77
2022/08/24 08:24:13;;;;;;;1.98;1.20;;;;;;;-145.69;45.72;70471.25;5076506;28;20202;-78
2022/08/24 08:26:40;;;;;;;2.65;1.10;;;;;;;-145.69;48.39;70431.47;5076236;28;20680;-76
2022/08/24 08:29:11;;;;;;;6.53;1.20;;;;;;;-145.69;46.25;70423.50;5076466;28;20209;-76
2022/08/24 08:31:41;;;;;;;2.47;1.13;;;;;;;-145.69;45.62;70413.56;5076568;28;20191;-77
2022/08/24 08:34:09;;;;;;;4.82;1.63;;;;;;;-145.69;45.83;70407.59;5076196;28;20675;-76
2022/08/24 08:36:38;;;;;;;4.15;1.50;;;;;;;-145.69;44.11;70395.66;5076118;28;20219;-76
2022/08/24 08:39:05;;;;;;;2.58;1.25;;;;;;;-145.69;44.32;70391.66;5076169;28;20293;-76
2022/08/24 08:42:17;;;;;;;2.83;1.00;;;;;;;-145.69;43.29;70387.69;5076219;28;20214;-76
2022/08/24 08:45:11;;;;;;;2.60;1.30;;;;;;;-145.69;41.79;70365.81;5076197;28;20206;-75
2022/08/24 08:48:04;;;;;;;1.60;0.90;;;;;;;-145.69;42.26;70365.81;5046287;28;20231;-75
2022/08/24 08:50:38;;;;;;;2.60;1.20;;;;;;;-145.69;41.21;70355.88;5056268;28;20203;-76
2022/08/24 08:53:44;;;;;;;3.63;1.10;;;;;;;-145.69;42.70;70357.84;5056152;28;20206;-77
2022/08/24 08:56:25;;;;;;;4.88;1.05;;;;;;;-145.69;42.44;70347.91;5064452;28;20222;-76
2022/08/24 08:59:02;;;;;;;1.75;1.10;;;;;;;-145.69;41.69;70324.03;5076071;28;20198;-76
2022/08/24 09:01:41;;;;;;;4.43;1.33;;;;;;;-145.69;41.32;70300.16;5075974;28;20198;-76
2022/08/24 09:04:30;;;;;;;1.48;1.10;;;;;;;-145.69;43.70;70280.28;5075894;28;20199;-76
2022/08/24 09:07:14;;;;;;;2.63;1.30;;;;;;;-145.69;44.44;70276.28;5075445;28;20195;-76
2022/08/24 09:10:06;;;;;;;3.42;1.30;;;;;;;-145.69;47.16;70274.31;5075839;28;20202;-76
2022/08/24 09:12:46;;;;;;;1.80;0.95;;;;;;;-145.69;46.18;70282.25;5075724;28;20589;-76
2022/08/24 09:15:45;;;;;;;3.72;1.50;;;;;;;-145.69;48.04;70316.06;5074910;28;20480;-76
2022/08/24 09:18:27;;;;;;;5.05;1.20;;;;;;;-145.69;43.39;70312.09;5047432;28;20227;-76
2022/08/24 09:21:31;;;;;;;3.72;1.48;;;;;;;-145.69;50.77;70320.06;5055478;28;20628;-75
2022/08/24 09:24:12;;;;;;;1.92;1.38;;;;;;;-145.69;48.21;70332.00;5042727;28;20205;-76
2022/08/24 09:26:55;;;;;;;4.45;1.70;;;;;;;-145.69;47.64;70306.13;5067455;28;20203;-76
2022/08/24 09:29:39;;;;;;;2.95;1.27;;;;;;;-145.69;48.25;70296.19;5074641;28;20732;-76
2022/08/24 09:32:27;;;;;;;2.15;1.52;;;;;;;-145.69;50.35;70310.09;5075162;28;20212;-75
2022/08/24 09:35:00;;;;;;;4.10;1.48;;;;;;;-145.69;48.19;70328.00;5075074;28;20689;-76
2022/08/24 09:37:34;;;;;;;2.60;1.23;;;;;;;-145.69;51.36;70330.00;5075051;28;20219;-76
2022/08/24 09:40:17;;;;;;;4.80;1.60;;;;;;;-145.69;50.92;70343.94;5075260;28;20202;-76
2022/08/24 09:43:14;;;;;;;3.15;1.23;;;;;;;-145.69;49.43;70335.97;5075417;28;20206;-76
2022/08/24 09:46:11;;;;;;;5.45;1.27;;;;;;;-145.69;45.48;70300.16;5075005;28;20195;-76
2022/08/24 09:49:17;;;;;;;3.97;1.98;;;;;;;-145.69;46.12;70284.25;5049627;28;20249;-75
2022/08/24 09:52:08;;;;;;;5.25;1.50;;;;;;;-145.69;46.28;70280.28;5074536;28;20442;-77
2022/08/24 09:55:12;;;;;;;3.70;1.45;;;;;;;-145.69;47.30;70272.31;5074961;28;20202;-76
2022/08/24 09:57:56;;;;;;;2.33;1.60;;;;;;;-145.69;47.15;70276.28;5074368;28;20257;-76
2022/08/24 10:00:28;;;;;;;2.63;1.20;;;;;;;-145.69;45.93;70280.28;5074820;28;20199;-77
2022/08/24 10:03:02;;;;;;;5.28;1.50;;;;;;;-145.69;46.73;70280.28;5074704;28;20203;-78
2022/08/24 10:05:52;;;;;;;3.65;1.40;;;;;;;-145.69;45.24;70288.22;5074738;28;20202;-76
2022/08/24 10:08:34;;;;;;;3.05;1.63;;;;;;;-145.69;44.86;70248.44;5074801;28;20211;-77
2022/08/24 10:11:14;;;;;;;4.15;1.60;;;;;;;-145.69;44.69;70228.53;5074660;28;20293;-76
2022/08/24 10:13:54;;;;;;;3.00;1.70;;;;;;;-145.69;44.98;70238.50;5074265;28;20202;-75
2022/08/24 10:16:29;;;;;;;6.80;1.67;;;;;;;-145.69;43.88;70236.50;5054382;28;20646;-75
2022/08/24 10:19:11;;;;;;;2.50;1.20;;;;;;;-145.69;44.14;70218.59;5054542;28;20282;-77
2022/08/24 10:21:49;;;;;;;3.10;1.30;;;;;;;-145.69;43.48;70226.56;5054337;28;20210;-76
2022/08/24 10:24:36;;;;;;;3.55;1.25;;;;;;;-145.69;43.63;70204.69;5073755;28;20536;-75
2022/08/24 10:27:21;;;;;;;2.55;1.30;;;;;;;-145.69;43.51;70186.78;5074404;28;20209;-77
2022/08/24 10:30:35;;;;;;;1.90;1.20;;;;;;;-145.69;45.67;70172.84;5074081;28;20661;-76
2022/08/24 10:33:18;;;;;;;3.53;1.42;;;;;;;-145.69;42.33;70172.84;5046576;28;20285;-77
2022/08/24 10:36:07;;;;;;;3.67;1.20;;;;;;;-145.69;41.71;70168.88;5073923;28;20207;-76
2022/08/24 10:45:30;;;;;;;3.40;1.05;;;;;;;-145.69;41.48;70190.75;5050018;28;20581;-78
2022/08/24 10:48:29;;;;;;;2.75;1.23;;;;;;;-145.69;40.75;70188.75;5053176;28;20228;-76
2022/08/24 10:50:59;;;;;;;2.20;1.17;;;;;;;-145.69;39.98;70188.75;5053528;28;20665;-76
2022/08/24 10:53:28;;;;;;;4.57;1.58;;;;;;;-145.69;41.04;70182.78;5056468;28;20235;-81
2022/08/24 10:56:06;;;;;;;4.32;1.40;;;;;;;-145.69;41.62;70170.84;5053205;28;20646;-77
2022/08/24 10:58:52;;;;;;;3.13;1.20;;;;;;;-145.69;41.75;70133.06;5053624;28;20317;-76
2022/08/24 11:01:27;;;;;;;6.00;1.48;;;;;;;-145.69;40.69;70117.16;5053614;28;20203;-77
2022/08/24 11:04:01;;;;;;;5.72;1.45;;;;;;;-145.69;40.88;70127.09;5069243;28;20191;-77
2022/08/24 11:06:31;;;;;;;7.05;1.40;;;;;;;-145.69;40.98;70137.03;5073426;28;20206;-76
2022/08/24 11:09:01;;;;;;;2.78;1.42;;;;;;;-145.69;38.70;70125.09;5073842;28;20195;-76
2022/08/24 11:11:32;;;;;;;4.75;1.20;;;;;;;-145.69;40.81;70109.19;5072811;28;20203;-76
2022/08/24 11:14:01;;;;;;;4.68;1.20;;;;;;;-145.69;38.81;70107.19;5072882;28;20336;-77
2022/08/24 11:16:34;;;;;;;3.42;1.20;;;;;;;-145.69;38.45;70105.22;5073324;28;20285;-77
2022/08/24 11:19:03;;;;;;;3.25;1.58;;;;;;;-145.69;39.61;70117.16;5073147;28;20680;-76
2022/08/24 11:21:46;;;;;;;2.60;1.23;;;;;;;-145.69;40.19;70117.16;5072537;28;20218;-76
2022/08/24 11:24:26;;;;;;;3.28;1.08;;;;;;;-145.69;38.81;70113.16;5072862;28;20206;-76
2022/08/24 11:26:58;;;;;;;6.25;1.38;;;;;;;-145.69;39.51;70107.19;5072928;28;20194;-77
2022/08/24 11:29:33;;;;;;;1.73;1.00;;;;;;;-145.69;40.47;70087.31;5069409;28;20253;-76
2022/08/24 11:32:01;;;;;;;4.30;1.10;;;;;;;-145.69;38.18;70069.41;5071072;28;20229;-78
2022/08/24 11:34:36;;;;;;;2.45;1.40;;;;;;;-145.69;39.15;70073.38;5072809;28;20203;-76
2022/08/24 11:37:04;;;;;;;2.70;1.08;;;;;;;-145.69;38.55;70073.38;5072796;28;20222;-76
2022/08/24 11:39:34;;;;;;;3.83;1.30;;;;;;;-145.69;38.58;70057.47;5072908;28;20205;-77
2022/08/24 11:42:13;;;;;;;3.97;1.23;;;;;;;-145.69;37.48;70061.44;5072810;28;20198;-77
2022/08/24 11:44:49;;;;;;;3.08;1.20;;;;;;;-145.69;37.94;70053.50;5052582;28;20298;-75